sensor_id;sensor_type;location;lat;lon;timestamp;pressure;altitude;pressure_sealevel;temperature
39959;BMP280;25639;53.634;9.880;2023-04-24T00:01:45;150179.34;;;-8.90
39959;BMP280;25639;53.634;9.880;2023-04-24T00:04:10;150180.59;;;-8.89
39959;BMP280;25639;53.634;9.880;2023-04-24T00:06:36;150178.09;;;-8.90
39959;BMP280;25639;53.634;9.880;2023-04-24T00:09:03;150170.53;;;-8.93
39959;BMP280;25639;53.634;9.880;2023-04-24T00:11:29;150151.69;;;-9.01
39959;BMP280;25639;53.634;9.880;2023-04-24T00:13:55;150173.06;;;-8.92
39959;BMP280;25639;53.634;9.880;2023-04-24T00:16:21;150154.19;;;-9.00
39959;BMP280;25639;53.634;9.880;2023-04-24T00:18:47;150147.94;;;-9.03
39959;BMP280;25639;53.634;9.880;2023-04-24T00:21:13;150134.09;;;-9.08
39959;BMP280;25639;53.634;9.880;2023-04-24T00:23:38;150136.59;;;-9.07
39959;BMP280;25639;53.634;9.880;2023-04-24T00:26:03;150139.13;;;-9.06
39959;BMP280;25639;53.634;9.880;2023-04-24T00:28:29;150145.38;;;-9.04
39959;BMP280;25639;53.634;9.880;2023-04-24T00:30:54;150165.53;;;-8.95
39959;BMP280;25639;53.634;9.880;2023-04-24T00:33:19;150156.72;;;-8.99
39959;BMP280;25639;53.634;9.880;2023-04-24T00:35:45;150137.84;;;-9.07
39959;BMP280;25639;53.634;9.880;2023-04-24T00:38:10;150119.00;;;-9.14
39959;BMP280;25639;53.634;9.880;2023-04-24T00:40:36;150120.25;;;-9.14
39959;BMP280;25639;53.634;9.880;2023-04-24T00:43:01;150086.34;;;-9.28
39959;BMP280;25639;53.634;9.880;2023-04-24T00:45:26;150137.84;;;-9.07
39959;BMP280;25639;53.634;9.880;2023-04-24T00:47:52;150124.03;;;-9.12
39959;BMP280;25639;53.634;9.880;2023-04-24T00:50:18;150141.63;;;-9.05
39959;BMP280;25639;53.634;9.880;2023-04-24T00:52:44;150147.94;;;-9.03
39959;BMP280;25639;53.634;9.880;2023-04-24T00:55:09;150135.34;;;-9.08
39959;BMP280;25639;53.634;9.880;2023-04-24T00:57:35;150132.81;;;-9.09
39959;BMP280;25639;53.634;9.880;2023-04-24T01:00:00;150146.63;;;-9.03
39959;BMP280;25639;53.634;9.880;2023-04-24T01:02:26;150126.56;;;-9.11
39959;BMP280;25639;53.634;9.880;2023-04-24T01:04:51;150096.41;;;-9.24
39959;BMP280;25639;53.634;9.880;2023-04-24T01:07:20;150135.34;;;-9.08
39959;BMP280;25639;53.634;9.880;2023-04-24T01:09:47;150059.97;;;-9.38
39959;BMP280;25639;53.634;9.880;2023-04-24T01:12:14;150065.00;;;-9.36
39959;BMP280;25639;53.634;9.880;2023-04-24T01:14:40;150065.00;;;-9.36
39959;BMP280;25639;53.634;9.880;2023-04-24T01:17:05;150034.84;;;-9.49
39959;BMP280;25639;53.634;9.880;2023-04-24T01:19:31;150057.44;;;-9.40
39959;BMP280;25639;53.634;9.880;2023-04-24T01:21:58;150073.78;;;-9.33
39959;BMP280;25639;53.634;9.880;2023-04-24T01:24:24;150052.41;;;-9.42
39959;BMP280;25639;53.634;9.880;2023-04-24T01:26:50;150018.50;;;-9.55
39959;BMP280;25639;53.634;9.880;2023-04-24T01:29:15;150034.84;;;-9.49
39959;BMP280;25639;53.634;9.880;2023-04-24T01:31:41;150036.06;;;-9.48
39959;BMP280;25639;53.634;9.880;2023-04-24T01:34:06;150023.50;;;-9.53
39959;BMP280;25639;53.634;9.880;2023-04-24T01:36:34;150013.47;;;-9.57
39959;BMP280;25639;53.634;9.880;2023-04-24T01:39:00;150010.94;;;-9.59
39959;BMP280;25639;53.634;9.880;2023-04-24T01:41:25;149999.66;;;-9.63
39959;BMP280;25639;53.634;9.880;2023-04-24T01:43:50;150021.03;;;-9.54
39959;BMP280;25639;53.634;9.880;2023-04-24T01:46:16;150034.84;;;-9.49
39959;BMP280;25639;53.634;9.880;2023-04-24T01:48:41;150022.25;;;-9.54
39959;BMP280;25639;53.634;9.880;2023-04-24T01:51:07;150010.94;;;-9.59
39959;BMP280;25639;53.634;9.880;2023-04-24T01:53:32;150027.28;;;-9.52
39959;BMP280;25639;53.634;9.880;2023-04-24T01:55:57;150036.06;;;-9.48
39959;BMP280;25639;53.634;9.880;2023-04-24T01:58:23;150026.03;;;-9.52
39959;BMP280;25639;53.634;9.880;2023-04-24T02:00:48;150033.59;;;-9.49
39959;BMP280;25639;53.634;9.880;2023-04-24T02:03:13;150017.25;;;-9.56
39959;BMP280;25639;53.634;9.880;2023-04-24T02:05:39;150009.69;;;-9.59
39959;BMP280;25639;53.634;9.880;2023-04-24T02:08:04;149998.44;;;-9.64
39959;BMP280;25639;53.634;9.880;2023-04-24T02:10:29;149984.56;;;-9.69
39959;BMP280;25639;53.634;9.880;2023-04-24T02:12:54;149955.72;;;-9.81
39959;BMP280;25639;53.634;9.880;2023-04-24T02:15:20;149943.16;;;-9.86
39959;BMP280;25639;53.634;9.880;2023-04-24T02:17:45;149931.81;;;-9.91
39959;BMP280;25639;53.634;9.880;2023-04-24T02:20:10;149895.41;;;-10.06
39959;BMP280;25639;53.634;9.880;2023-04-24T02:22:36;149896.66;;;-10.05
39959;BMP280;25639;53.634;9.880;2023-04-24T02:25:01;149887.88;;;-10.09
39959;BMP280;25639;53.634;9.880;2023-04-24T02:27:27;149892.88;;;-10.07
39959;BMP280;25639;53.634;9.880;2023-04-24T02:29:52;149899.19;;;-10.04
39959;BMP280;25639;53.634;9.880;2023-04-24T02:32:17;149886.63;;;-10.09
39959;BMP280;25639;53.634;9.880;2023-04-24T02:34:43;149874.06;;;-10.14
39959;BMP280;25639;53.634;9.880;2023-04-24T02:37:08;149869.06;;;-10.17
39959;BMP280;25639;53.634;9.880;2023-04-24T02:39:33;149862.81;;;-10.19
39959;BMP280;25639;53.634;9.880;2023-04-24T02:41:58;149842.69;;;-10.27
39959;BMP280;25639;53.634;9.880;2023-04-24T02:44:25;149841.44;;;-10.28
39959;BMP280;25639;53.634;9.880;2023-04-24T02:46:50;149833.97;;;-10.31
39959;BMP280;25639;53.634;9.880;2023-04-24T02:49:15;149833.97;;;-10.31
39959;BMP280;25639;53.634;9.880;2023-04-24T02:51:40;149827.69;;;-10.33
39959;BMP280;25639;53.634;9.880;2023-04-24T02:54:07;149813.84;;;-10.39
39959;BMP280;25639;53.634;9.880;2023-04-24T02:56:33;149772.47;;;-10.56
39959;BMP280;25639;53.634;9.880;2023-04-24T02:58:59;149782.47;;;-10.52
39959;BMP280;25639;53.634;9.880;2023-04-24T03:01:24;149781.25;;;-10.52
39959;BMP280;25639;53.634;9.880;2023-04-24T03:03:50;149780.00;;;-10.53
39959;BMP280;25639;53.634;9.880;2023-04-24T03:06:15;149778.72;;;-10.53
39959;BMP280;25639;53.634;9.880;2023-04-24T03:08:40;149769.94;;;-10.57
39959;BMP280;25639;53.634;9.880;2023-04-24T03:11:05;149768.69;;;-10.58
39959;BMP280;25639;53.634;9.880;2023-04-24T03:13:31;149801.34;;;-10.44
39959;BMP280;25639;53.634;9.880;2023-04-24T03:15:56;149781.25;;;-10.52
39959;BMP280;25639;53.634;9.880;2023-04-24T03:18:21;149773.69;;;-10.56
39959;BMP280;25639;53.634;9.880;2023-04-24T03:20:47;149764.91;;;-10.59
39959;BMP280;25639;53.634;9.880;2023-04-24T03:23:12;149756.13;;;-10.63
39959;BMP280;25639;53.634;9.880;2023-04-24T03:25:37;149743.56;;;-10.68
39959;BMP280;25639;53.634;9.880;2023-04-24T03:28:03;149739.81;;;-10.69
39959;BMP280;25639;53.634;9.880;2023-04-24T03:30:28;149705.97;;;-10.83
39959;BMP280;25639;53.634;9.880;2023-04-24T03:32:53;149688.38;;;-10.90
39959;BMP280;25639;53.634;9.880;2023-04-24T03:35:18;149660.75;;;-11.02
39959;BMP280;25639;53.634;9.880;2023-04-24T03:37:44;149675.84;;;-10.96
39959;BMP280;25639;53.634;9.880;2023-04-24T03:40:09;149670.81;;;-10.98
39959;BMP280;25639;53.634;9.880;2023-04-24T03:42:35;149672.06;;;-10.97
39959;BMP280;25639;53.634;9.880;2023-04-24T03:45:00;149675.84;;;-10.96
39959;BMP280;25639;53.634;9.880;2023-04-24T03:47:25;149663.28;;;-11.01
39959;BMP280;25639;53.634;9.880;2023-04-24T03:49:50;149644.47;;;-11.08
39959;BMP280;25639;53.634;9.880;2023-04-24T03:52:16;149633.16;;;-11.13
39959;BMP280;25639;53.634;9.880;2023-04-24T03:54:42;149621.88;;;-11.18
39959;BMP280;25639;53.634;9.880;2023-04-24T03:57:07;149630.63;;;-11.14
39959;BMP280;25639;53.634;9.880;2023-04-24T03:59:32;149631.94;;;-11.14
39959;BMP280;25639;53.634;9.880;2023-04-24T04:01:57;149618.13;;;-11.19
39959;BMP280;25639;53.634;9.880;2023-04-24T04:04:23;149604.31;;;-11.25
39959;BMP280;25639;53.634;9.880;2023-04-24T04:06:48;149600.59;;;-11.26
39959;BMP280;25639;53.634;9.880;2023-04-24T04:09:14;149598.06;;;-11.27
39959;BMP280;25639;53.634;9.880;2023-04-24T04:11:39;149618.13;;;-11.19
39959;BMP280;25639;53.634;9.880;2023-04-24T04:14:04;149620.63;;;-11.18
39959;BMP280;25639;53.634;9.880;2023-04-24T04:16:30;149623.16;;;-11.17
39959;BMP280;25639;53.634;9.880;2023-04-24T04:18:55;149640.72;;;-11.10
39959;BMP280;25639;53.634;9.880;2023-04-24T04:21:21;149633.16;;;-11.13
39959;BMP280;25639;53.634;9.880;2023-04-24T04:23:46;149623.16;;;-11.17
39959;BMP280;25639;53.634;9.880;2023-04-24T04:26:11;149614.38;;;-11.21
39959;BMP280;25639;53.634;9.880;2023-04-24T04:28:38;149624.38;;;-11.17
39959;BMP280;25639;53.634;9.880;2023-04-24T04:31:04;149635.69;;;-11.12
39959;BMP280;25639;53.634;9.880;2023-04-24T04:33:29;149628.16;;;-11.15
39959;BMP280;25639;53.634;9.880;2023-04-24T04:35:54;149648.19;;;-11.07
39959;BMP280;25639;53.634;9.880;2023-04-24T04:38:22;149639.41;;;-11.10
39959;BMP280;25639;53.634;9.880;2023-04-24T04:40:47;149654.50;;;-11.04
39959;BMP280;25639;53.634;9.880;2023-04-24T04:43:13;149679.59;;;-10.94
39959;BMP280;25639;53.634;9.880;2023-04-24T04:45:40;149700.94;;;-10.85
39959;BMP280;25639;53.634;9.880;2023-04-24T04:48:06;149690.88;;;-10.89
39959;BMP280;25639;53.634;9.880;2023-04-24T04:50:33;149718.50;;;-10.78
39959;BMP280;25639;53.634;9.880;2023-04-24T04:52:58;149766.16;;;-10.59
39959;BMP280;25639;53.634;9.880;2023-04-24T04:55:24;149782.47;;;-10.52
39959;BMP280;25639;53.634;9.880;2023-04-24T04:57:49;149776.22;;;-10.55
39959;BMP280;25639;53.634;9.880;2023-04-24T05:00:14;149781.25;;;-10.52
39959;BMP280;25639;53.634;9.880;2023-04-24T05:02:40;149771.22;;;-10.57
39959;BMP280;25639;53.634;9.880;2023-04-24T05:05:06;149781.25;;;-10.52
39959;BMP280;25639;53.634;9.880;2023-04-24T05:07:32;149781.25;;;-10.52
39959;BMP280;25639;53.634;9.880;2023-04-24T05:09:57;149786.25;;;-10.50
39959;BMP280;25639;53.634;9.880;2023-04-24T05:12:23;149781.25;;;-10.52
39959;BMP280;25639;53.634;9.880;2023-04-24T05:14:48;149820.16;;;-10.37
39959;BMP280;25639;53.634;9.880;2023-04-24T05:17:13;149870.31;;;-10.16
39959;BMP280;25639;53.634;9.880;2023-04-24T05:19:38;149886.63;;;-10.09
39959;BMP280;25639;53.634;9.880;2023-04-24T05:22:04;149897.94;;;-10.05
39959;BMP280;25639;53.634;9.880;2023-04-24T05:24:34;149894.19;;;-10.06
39959;BMP280;25639;53.634;9.880;2023-04-24T05:27:00;149939.38;;;-9.88
39959;BMP280;25639;53.634;9.880;2023-04-24T05:29:25;149964.50;;;-9.78
39959;BMP280;25639;53.634;9.880;2023-04-24T05:31:51;149999.66;;;-9.63
39959;BMP280;25639;53.634;9.880;2023-04-24T05:34:17;149997.13;;;-9.64
39959;BMP280;25639;53.634;9.880;2023-04-24T05:36:42;149970.75;;;-9.75
39959;BMP280;25639;53.634;9.880;2023-04-24T05:39:08;149974.53;;;-9.73
39959;BMP280;25639;53.634;9.880;2023-04-24T05:41:34;149944.38;;;-9.86
39959;BMP280;25639;53.634;9.880;2023-04-24T05:43:59;149984.56;;;-9.69
39959;BMP280;25639;53.634;9.880;2023-04-24T05:46:24;150028.53;;;-9.51
39959;BMP280;25639;53.634;9.880;2023-04-24T05:48:50;150048.66;;;-9.43
39959;BMP280;25639;53.634;9.880;2023-04-24T05:51:15;150053.66;;;-9.41
39959;BMP280;25639;53.634;9.880;2023-04-24T05:53:41;150136.59;;;-9.07
39959;BMP280;25639;53.634;9.880;2023-04-24T05:56:06;150175.56;;;-8.91
39959;BMP280;25639;53.634;9.880;2023-04-24T05:58:31;150320.09;;;-8.32
39959;BMP280;25639;53.634;9.880;2023-04-24T06:00:56;150337.69;;;-8.25
39959;BMP280;25639;53.634;9.880;2023-04-24T06:03:23;150342.72;;;-8.23
39959;BMP280;25639;53.634;9.880;2023-04-24T06:05:50;150438.31;;;-7.84
39959;BMP280;25639;53.634;9.880;2023-04-24T06:08:16;150488.66;;;-7.63
39959;BMP280;25639;53.634;9.880;2023-04-24T06:10:41;150541.50;;;-7.42
39959;BMP280;25639;53.634;9.880;2023-04-24T06:13:06;150637.13;;;-7.03
39959;BMP280;25639;53.634;9.880;2023-04-24T06:15:32;150703.88;;;-6.76
39959;BMP280;25639;53.634;9.880;2023-04-24T06:17:57;150776.88;;;-6.46
39959;BMP280;25639;53.634;9.880;2023-04-24T06:20:23;150710.16;;;-6.73
39959;BMP280;25639;53.634;9.880;2023-04-24T06:22:48;150813.44;;;-6.31
39959;BMP280;25639;53.634;9.880;2023-04-24T06:25:14;150826.03;;;-6.26
39959;BMP280;25639;53.634;9.880;2023-04-24T06:27:39;150787.00;;;-6.42
39959;BMP280;25639;53.634;9.880;2023-04-24T06:30:05;150826.03;;;-6.26
39959;BMP280;25639;53.634;9.880;2023-04-24T06:32:31;150849.94;;;-6.16
39959;BMP280;25639;53.634;9.880;2023-04-24T06:34:56;150854.97;;;-6.14
39959;BMP280;25639;53.634;9.880;2023-04-24T06:37:22;150939.34;;;-5.80
39959;BMP280;25639;53.634;9.880;2023-04-24T06:39:47;151012.44;;;-5.50
39959;BMP280;25639;53.634;9.880;2023-04-24T06:42:12;150823.50;;;-6.27
39959;BMP280;25639;53.634;9.880;2023-04-24T06:44:38;150860.00;;;-6.12
39959;BMP280;25639;53.634;9.880;2023-04-24T06:47:07;150982.19;;;-5.62
39959;BMP280;25639;53.634;9.880;2023-04-24T06:49:34;150802.09;;;-6.36
39959;BMP280;25639;53.634;9.880;2023-04-24T06:51:59;150838.59;;;-6.21
39959;BMP280;25639;53.634;9.880;2023-04-24T06:54:25;150700.09;;;-6.77
39959;BMP280;25639;53.634;9.880;2023-04-24T06:56:50;150697.56;;;-6.78
39959;BMP280;25639;53.634;9.880;2023-04-24T06:59:17;150705.13;;;-6.75
39959;BMP280;25639;53.634;9.880;2023-04-24T07:01:42;150759.25;;;-6.53
39959;BMP280;25639;53.634;9.880;2023-04-24T07:04:07;150870.13;;;-6.08
39959;BMP280;25639;53.634;9.880;2023-04-24T07:06:32;151051.53;;;-5.34
39959;BMP280;25639;53.634;9.880;2023-04-24T07:08:58;151099.44;;;-5.14
39959;BMP280;25639;53.634;9.880;2023-04-24T07:11:24;151056.56;;;-5.32
39959;BMP280;25639;53.634;9.880;2023-04-24T07:13:55;151057.81;;;-5.31
39959;BMP280;25639;53.634;9.880;2023-04-24T07:16:20;150920.44;;;-5.87
39959;BMP280;25639;53.634;9.880;2023-04-24T07:18:45;150987.22;;;-5.60
39959;BMP280;25639;53.634;9.880;2023-04-24T07:21:11;150921.69;;;-5.87
39959;BMP280;25639;53.634;9.880;2023-04-24T07:23:36;151003.63;;;-5.53
39959;BMP280;25639;53.634;9.880;2023-04-24T07:26:02;151002.38;;;-5.54
39959;BMP280;25639;53.634;9.880;2023-04-24T07:28:27;151079.25;;;-5.23
39959;BMP280;25639;53.634;9.880;2023-04-24T07:30:56;151127.16;;;-5.03
39959;BMP280;25639;53.634;9.880;2023-04-24T07:33:21;151212.94;;;-4.68
39959;BMP280;25639;53.634;9.880;2023-04-24T07:35:47;151206.59;;;-4.71
39959;BMP280;25639;53.634;9.880;2023-04-24T07:38:12;151127.16;;;-5.03
39959;BMP280;25639;53.634;9.880;2023-04-24T07:40:37;151020.03;;;-5.47
39959;BMP280;25639;53.634;9.880;2023-04-24T07:43:03;150970.88;;;-5.67
39959;BMP280;25639;53.634;9.880;2023-04-24T07:45:28;150885.22;;;-6.02
39959;BMP280;25639;53.634;9.880;2023-04-24T07:47:53;150805.88;;;-6.34
39959;BMP280;25639;53.634;9.880;2023-04-24T07:50:19;150764.28;;;-6.51
39959;BMP280;25639;53.634;9.880;2023-04-24T07:52:44;150537.72;;;-7.43
39959;BMP280;25639;53.634;9.880;2023-04-24T07:55:10;150541.50;;;-7.42
39959;BMP280;25639;53.634;9.880;2023-04-24T07:57:36;150473.53;;;-7.70
39959;BMP280;25639;53.634;9.880;2023-04-24T08:00:05;150393.03;;;-8.02
39959;BMP280;25639;53.634;9.880;2023-04-24T08:02:31;150352.81;;;-8.19
39959;BMP280;25639;53.634;9.880;2023-04-24T08:04:56;150365.34;;;-8.14
39959;BMP280;25639;53.634;9.880;2023-04-24T08:07:21;150332.66;;;-8.27
39959;BMP280;25639;53.634;9.880;2023-04-24T08:09:46;150338.94;;;-8.25
39959;BMP280;25639;53.634;9.880;2023-04-24T08:12:12;150467.25;;;-7.72
39959;BMP280;25639;53.634;9.880;2023-04-24T08:14:37;150538.97;;;-7.43
39959;BMP280;25639;53.634;9.880;2023-04-24T08:17:02;150584.25;;;-7.24
39959;BMP280;25639;53.634;9.880;2023-04-24T08:19:28;150482.34;;;-7.66
39959;BMP280;25639;53.634;9.880;2023-04-24T08:21:53;150462.22;;;-7.74
39959;BMP280;25639;53.634;9.880;2023-04-24T08:24:19;150409.34;;;-7.96
39959;BMP280;25639;53.634;9.880;2023-04-24T08:26:44;150468.50;;;-7.72
39959;BMP280;25639;53.634;9.880;2023-04-24T08:29:10;150503.72;;;-7.57
39959;BMP280;25639;53.634;9.880;2023-04-24T08:31:35;150444.63;;;-7.81
39959;BMP280;25639;53.634;9.880;2023-04-24T08:34:00;150445.88;;;-7.81
39959;BMP280;25639;53.634;9.880;2023-04-24T08:36:26;150403.09;;;-7.98
39959;BMP280;25639;53.634;9.880;2023-04-24T08:38:52;150385.47;;;-8.06
39959;BMP280;25639;53.634;9.880;2023-04-24T08:41:18;150413.13;;;-7.94
39959;BMP280;25639;53.634;9.880;2023-04-24T08:43:46;150458.47;;;-7.76
39959;BMP280;25639;53.634;9.880;2023-04-24T08:46:12;150457.16;;;-7.76
39959;BMP280;25639;53.634;9.880;2023-04-24T08:48:38;150428.25;;;-7.88
39959;BMP280;25639;53.634;9.880;2023-04-24T08:51:07;150424.47;;;-7.90
39959;BMP280;25639;53.634;9.880;2023-04-24T08:53:32;150381.69;;;-8.07
39959;BMP280;25639;53.634;9.880;2023-04-24T08:55:58;150361.59;;;-8.15
39959;BMP280;25639;53.634;9.880;2023-04-24T08:58:27;150328.88;;;-8.29
39959;BMP280;25639;53.634;9.880;2023-04-24T09:00:56;150372.91;;;-8.11
39959;BMP280;25639;53.634;9.880;2023-04-24T09:03:22;150349.03;;;-8.20
39959;BMP280;25639;53.634;9.880;2023-04-24T09:05:48;150375.44;;;-8.10
39959;BMP280;25639;53.634;9.880;2023-04-24T09:08:16;150444.63;;;-7.81
39959;BMP280;25639;53.634;9.880;2023-04-24T09:10:42;150449.66;;;-7.79
39959;BMP280;25639;53.634;9.880;2023-04-24T09:13:08;150365.34;;;-8.14
39959;BMP280;25639;53.634;9.880;2023-04-24T09:15:36;150333.91;;;-8.27
39959;BMP280;25639;53.634;9.880;2023-04-24T09:18:02;150385.47;;;-8.06
39959;BMP280;25639;53.634;9.880;2023-04-24T09:20:28;150393.03;;;-8.02
39959;BMP280;25639;53.634;9.880;2023-04-24T09:22:54;150394.28;;;-8.02
39959;BMP280;25639;53.634;9.880;2023-04-24T09:25:30;150384.22;;;-8.06
39959;BMP280;25639;53.634;9.880;2023-04-24T09:28:00;150421.94;;;-7.91
39959;BMP280;25639;53.634;9.880;2023-04-24T09:30:26;150395.53;;;-8.01
39959;BMP280;25639;53.634;9.880;2023-04-24T09:33:18;150380.47;;;-8.08
39959;BMP280;25639;53.634;9.880;2023-04-24T09:35:51;150453.44;;;-7.78
39959;BMP280;25639;53.634;9.880;2023-04-24T09:38:17;150567.94;;;-7.31
39959;BMP280;25639;53.634;9.880;2023-04-24T09:40:42;150593.06;;;-7.21
39959;BMP280;25639;53.634;9.880;2023-04-24T09:43:10;150674.91;;;-6.87
39959;BMP280;25639;53.634;9.880;2023-04-24T09:45:39;150642.19;;;-7.01
39959;BMP280;25639;53.634;9.880;2023-04-24T09:48:05;150654.72;;;-6.96
39959;BMP280;25639;53.634;9.880;2023-04-24T09:50:31;150492.38;;;-7.62
39959;BMP280;25639;53.634;9.880;2023-04-24T09:53:05;150492.38;;;-7.62
39959;BMP280;25639;53.634;9.880;2023-04-24T09:55:30;150474.78;;;-7.69
39959;BMP280;25639;53.634;9.880;2023-04-24T09:57:58;150474.78;;;-7.69
39959;BMP280;25639;53.634;9.880;2023-04-24T10:00:29;150523.88;;;-7.49
39959;BMP280;25639;53.634;9.880;2023-04-24T10:02:57;150491.16;;;-7.62
39959;BMP280;25639;53.634;9.880;2023-04-24T10:05:29;150469.75;;;-7.71
39959;BMP280;25639;53.634;9.880;2023-04-24T10:08:04;150398.06;;;-8.00
39959;BMP280;25639;53.634;9.880;2023-04-24T10:10:31;150357.81;;;-8.17
39959;BMP280;25639;53.634;9.880;2023-04-24T10:12:57;150323.88;;;-8.31
39959;BMP280;25639;53.634;9.880;2023-04-24T10:15:22;150384.22;;;-8.06
39959;BMP280;25639;53.634;9.880;2023-04-24T10:17:49;150410.66;;;-7.95
39959;BMP280;25639;53.634;9.880;2023-04-24T10:20:25;150432.03;;;-7.87
39959;BMP280;25639;53.634;9.880;2023-04-24T10:22:54;150453.44;;;-7.78
39959;BMP280;25639;53.634;9.880;2023-04-24T10:25:24;150493.69;;;-7.61
39959;BMP280;25639;53.634;9.880;2023-04-24T10:27:51;150498.72;;;-7.59
39959;BMP280;25639;53.634;9.880;2023-04-24T10:30:17;150542.75;;;-7.41
39959;BMP280;25639;53.634;9.880;2023-04-24T10:32:43;150508.75;;;-7.55
39959;BMP280;25639;53.634;9.880;2023-04-24T10:35:11;150469.75;;;-7.71
39959;BMP280;25639;53.634;9.880;2023-04-24T10:37:45;150515.06;;;-7.53
39959;BMP280;25639;53.634;9.880;2023-04-24T10:40:11;150521.34;;;-7.50
39959;BMP280;25639;53.634;9.880;2023-04-24T10:42:40;150557.81;;;-7.35
39959;BMP280;25639;53.634;9.880;2023-04-24T10:45:27;150640.91;;;-7.01
39959;BMP280;25639;53.634;9.880;2023-04-24T10:48:07;150712.69;;;-6.72
39959;BMP280;25639;53.634;9.880;2023-04-24T10:53:13;150706.38;;;-6.75
39959;BMP280;25639;53.634;9.880;2023-04-24T10:58:09;150560.38;;;-7.34
39959;BMP280;25639;53.634;9.880;2023-04-24T11:00:39;150438.31;;;-7.84
39959;BMP280;25639;53.634;9.880;2023-04-24T11:03:23;150391.75;;;-8.03
39959;BMP280;25639;53.634;9.880;2023-04-24T11:05:52;150379.22;;;-8.08
39959;BMP280;25639;53.634;9.880;2023-04-24T11:08:32;150381.69;;;-8.07
39959;BMP280;25639;53.634;9.880;2023-04-24T11:11:09;150395.53;;;-8.01
39959;BMP280;25639;53.634;9.880;2023-04-24T11:16:28;150331.41;;;-8.28
39959;BMP280;25639;53.634;9.880;2023-04-24T11:19:18;150301.22;;;-8.40
39959;BMP280;25639;53.634;9.880;2023-04-24T11:21:49;150379.22;;;-8.08
39959;BMP280;25639;53.634;9.880;2023-04-24T11:27:22;150302.47;;;-8.39
39959;BMP280;25639;53.634;9.880;2023-04-24T11:32:17;150308.78;;;-8.37
39959;BMP280;25639;53.634;9.880;2023-04-24T11:34:46;150297.47;;;-8.41
39959;BMP280;25639;53.634;9.880;2023-04-24T11:37:12;150320.09;;;-8.32
39959;BMP280;25639;53.634;9.880;2023-04-24T11:39:37;150361.59;;;-8.15
39959;BMP280;25639;53.634;9.880;2023-04-24T11:42:03;150409.34;;;-7.96
39959;BMP280;25639;53.634;9.880;2023-04-24T11:44:29;150395.53;;;-8.01
39959;BMP280;25639;53.634;9.880;2023-04-24T11:46:56;150403.09;;;-7.98
39959;BMP280;25639;53.634;9.880;2023-04-24T11:49:21;150457.16;;;-7.76
39959;BMP280;25639;53.634;9.880;2023-04-24T11:51:46;150504.97;;;-7.57
39959;BMP280;25639;53.634;9.880;2023-04-24T11:54:12;150512.53;;;-7.54
39959;BMP280;25639;53.634;9.880;2023-04-24T11:56:37;150586.78;;;-7.23
39959;BMP280;25639;53.634;9.880;2023-04-24T11:59:04;150531.41;;;-7.46
39959;BMP280;25639;53.634;9.880;2023-04-24T12:01:29;150420.69;;;-7.91
39959;BMP280;25639;53.634;9.880;2023-04-24T12:03:59;150433.28;;;-7.86
39959;BMP280;25639;53.634;9.880;2023-04-24T12:06:25;150370.41;;;-8.12
39959;BMP280;25639;53.634;9.880;2023-04-24T12:08:52;150374.13;;;-8.10
39959;BMP280;25639;53.634;9.880;2023-04-24T12:11:17;150350.25;;;-8.20
39959;BMP280;25639;53.634;9.880;2023-04-24T12:13:43;150362.84;;;-8.15
39959;BMP280;25639;53.634;9.880;2023-04-24T12:16:09;150413.13;;;-7.94
39959;BMP280;25639;53.634;9.880;2023-04-24T12:18:34;150442.09;;;-7.82
39959;BMP280;25639;53.634;9.880;2023-04-24T12:21:20;150506.25;;;-7.56
39959;BMP280;25639;53.634;9.880;2023-04-24T12:23:46;150460.94;;;-7.75
39959;BMP280;25639;53.634;9.880;2023-04-24T12:26:16;150379.22;;;-8.08
39959;BMP280;25639;53.634;9.880;2023-04-24T12:28:41;150398.06;;;-8.00
39959;BMP280;25639;53.634;9.880;2023-04-24T12:31:07;150338.94;;;-8.25
39959;BMP280;25639;53.634;9.880;2023-04-24T12:33:33;150311.28;;;-8.36
39959;BMP280;25639;53.634;9.880;2023-04-24T12:35:59;150292.47;;;-8.44
39959;BMP280;25639;53.634;9.880;2023-04-24T12:38:27;150310.03;;;-8.36
39959;BMP280;25639;53.634;9.880;2023-04-24T12:43:28;150244.72;;;-8.63
39959;BMP280;25639;53.634;9.880;2023-04-24T12:45:53;150234.66;;;-8.67
39959;BMP280;25639;53.634;9.880;2023-04-24T12:48:18;150239.69;;;-8.65
39959;BMP280;25639;53.634;9.880;2023-04-24T12:50:45;150307.50;;;-8.37
39959;BMP280;25639;53.634;9.880;2023-04-24T12:53:10;150313.81;;;-8.35
39959;BMP280;25639;53.634;9.880;2023-04-24T12:55:37;150220.78;;;-8.73
39959;BMP280;25639;53.634;9.880;2023-04-24T12:58:02;150209.50;;;-8.77
39959;BMP280;25639;53.634;9.880;2023-04-24T13:00:28;150228.34;;;-8.70
39959;BMP280;25639;53.634;9.880;2023-04-24T13:02:53;150188.13;;;-8.86
39959;BMP280;25639;53.634;9.880;2023-04-24T13:05:19;150171.78;;;-8.93
39959;BMP280;25639;53.634;9.880;2023-04-24T13:07:44;150209.50;;;-8.77
39959;BMP280;25639;53.634;9.880;2023-04-24T13:10:10;150188.13;;;-8.86
39959;BMP280;25639;53.634;9.880;2023-04-24T13:12:35;150169.28;;;-8.94
39959;BMP280;25639;53.634;9.880;2023-04-24T13:15:01;150173.06;;;-8.92
39959;BMP280;25639;53.634;9.880;2023-04-24T13:17:26;150190.66;;;-8.85
39959;BMP280;25639;53.634;9.880;2023-04-24T13:19:54;150135.34;;;-9.08
39959;BMP280;25639;53.634;9.880;2023-04-24T13:22:20;150169.28;;;-8.94
39959;BMP280;25639;53.634;9.880;2023-04-24T13:24:45;150155.44;;;-8.99
39959;BMP280;25639;53.634;9.880;2023-04-24T13:27:14;150194.41;;;-8.84
39959;BMP280;25639;53.634;9.880;2023-04-24T13:29:39;150227.09;;;-8.70
39959;BMP280;25639;53.634;9.880;2023-04-24T13:32:04;150223.31;;;-8.72
39959;BMP280;25639;53.634;9.880;2023-04-24T13:34:30;150242.16;;;-8.64
39959;BMP280;25639;53.634;9.880;2023-04-24T13:36:57;150248.47;;;-8.61
39959;BMP280;25639;53.634;9.880;2023-04-24T13:39:23;150259.78;;;-8.57
39959;BMP280;25639;53.634;9.880;2023-04-24T13:41:49;150224.56;;;-8.71
39959;BMP280;25639;53.634;9.880;2023-04-24T13:44:16;150257.28;;;-8.58
39959;BMP280;25639;53.634;9.880;2023-04-24T13:46:42;150218.31;;;-8.74
39959;BMP280;25639;53.634;9.880;2023-04-24T13:49:09;150198.19;;;-8.82
39959;BMP280;25639;53.634;9.880;2023-04-24T13:51:35;150206.97;;;-8.78
39959;BMP280;25639;53.634;9.880;2023-04-24T13:54:00;150253.50;;;-8.59
39959;BMP280;25639;53.634;9.880;2023-04-24T13:56:25;150278.66;;;-8.49
39959;BMP280;25639;53.634;9.880;2023-04-24T13:58:51;150307.50;;;-8.37
39959;BMP280;25639;53.634;9.880;2023-04-24T14:01:16;150346.50;;;-8.21
39959;BMP280;25639;53.634;9.880;2023-04-24T14:03:42;150345.25;;;-8.22
39959;BMP280;25639;53.634;9.880;2023-04-24T14:06:10;150372.91;;;-8.11